sensor_id;sensor_type;location;lat;lon;timestamp;temperature;humidity
31263;DHT22;17892;52.080;9.006;2022-08-21T00:00:12;14.50;89.10
31263;DHT22;17892;52.080;9.006;2022-08-21T00:03:03;14.50;89.40
31263;DHT22;17892;52.080;9.006;2022-08-21T00:05:32;14.50;90.30
31263;DHT22;17892;52.080;9.006;2022-08-21T00:08:00;14.50;89.00
31263;DHT22;17892;52.080;9.006;2022-08-21T00:10:26;14.60;89.10
31263;DHT22;17892;52.080;9.006;2022-08-21T00:12:52;14.50;89.20
31263;DHT22;17892;52.080;9.006;2022-08-21T00:15:23;14.50;89.50
31263;DHT22;17892;52.080;9.006;2022-08-21T00:17:52;14.50;90.00
31263;DHT22;17892;52.080;9.006;2022-08-21T00:20:18;14.50;90.00
31263;DHT22;17892;52.080;9.006;2022-08-21T00:22:44;14.60;90.10
31263;DHT22;17892;52.080;9.006;2022-08-21T00:25:12;14.60;90.20
31263;DHT22;17892;52.080;9.006;2022-08-21T00:27:39;14.60;90.30
31263;DHT22;17892;52.080;9.006;2022-08-21T00:30:06;14.70;90.40
31263;DHT22;17892;52.080;9.006;2022-08-21T00:32:33;14.70;90.60
31263;DHT22;17892;52.080;9.006;2022-08-21T00:34:59;14.80;90.60
31263;DHT22;17892;52.080;9.006;2022-08-21T00:37:24;14.90;90.70
31263;DHT22;17892;52.080;9.006;2022-08-21T00:39:50;15.00;90.80
31263;DHT22;17892;52.080;9.006;2022-08-21T00:42:17;15.00;90.80
31263;DHT22;17892;52.080;9.006;2022-08-21T00:44:44;15.10;90.80
31263;DHT22;17892;52.080;9.006;2022-08-21T00:47:11;15.20;90.80
31263;DHT22;17892;52.080;9.006;2022-08-21T00:49:38;15.20;90.60
31263;DHT22;17892;52.080;9.006;2022-08-21T00:52:07;15.30;90.60
31263;DHT22;17892;52.080;9.006;2022-08-21T00:54:35;15.30;90.50
31263;DHT22;17892;52.080;9.006;2022-08-21T00:57:07;15.30;90.40
31263;DHT22;17892;52.080;9.006;2022-08-21T00:59:37;15.30;90.40
31263;DHT22;17892;52.080;9.006;2022-08-21T01:02:06;15.30;90.20
31263;DHT22;17892;52.080;9.006;2022-08-21T01:04:33;15.30;90.20
31263;DHT22;17892;52.080;9.006;2022-08-21T01:07:00;15.30;90.10
31263;DHT22;17892;52.080;9.006;2022-08-21T01:09:26;15.30;90.10
31263;DHT22;17892;52.080;9.006;2022-08-21T01:11:52;15.20;90.00
31263;DHT22;17892;52.080;9.006;2022-08-21T01:14:18;15.20;90.10
31263;DHT22;17892;52.080;9.006;2022-08-21T01:16:47;15.10;90.10
31263;DHT22;17892;52.080;9.006;2022-08-21T01:19:16;15.10;90.10
31263;DHT22;17892;52.080;9.006;2022-08-21T01:21:43;15.10;90.20
31263;DHT22;17892;52.080;9.006;2022-08-21T01:24:09;15.00;90.20
31263;DHT22;17892;52.080;9.006;2022-08-21T01:26:35;15.00;90.30
31263;DHT22;17892;52.080;9.006;2022-08-21T01:31:51;15.00;90.80
31263;DHT22;17892;52.080;9.006;2022-08-21T01:34:17;15.00;90.60
31263;DHT22;17892;52.080;9.006;2022-08-21T01:36:44;15.00;90.70
31263;DHT22;17892;52.080;9.006;2022-08-21T01:39:11;15.00;90.90
31263;DHT22;17892;52.080;9.006;2022-08-21T01:41:37;15.10;91.40
31263;DHT22;17892;52.080;9.006;2022-08-21T01:44:03;15.10;91.10
31263;DHT22;17892;52.080;9.006;2022-08-21T01:46:29;15.20;91.20
31263;DHT22;17892;52.080;9.006;2022-08-21T01:48:55;15.30;91.30
31263;DHT22;17892;52.080;9.006;2022-08-21T01:51:20;15.30;91.30
31263;DHT22;17892;52.080;9.006;2022-08-21T01:53:47;15.40;91.40
31263;DHT22;17892;52.080;9.006;2022-08-21T01:56:14;15.50;91.50
31263;DHT22;17892;52.080;9.006;2022-08-21T01:58:42;15.50;91.50
31263;DHT22;17892;52.080;9.006;2022-08-21T02:01:09;15.60;91.50
31263;DHT22;17892;52.080;9.006;2022-08-21T02:03:36;15.70;91.50
31263;DHT22;17892;52.080;9.006;2022-08-21T02:06:06;15.80;91.60
31263;DHT22;17892;52.080;9.006;2022-08-21T02:08:37;15.90;91.80
31263;DHT22;17892;52.080;9.006;2022-08-21T02:11:02;15.90;91.50
31263;DHT22;17892;52.080;9.006;2022-08-21T02:13:28;16.00;91.50
31263;DHT22;17892;52.080;9.006;2022-08-21T02:15:54;16.00;91.40
31263;DHT22;17892;52.080;9.006;2022-08-21T02:18:19;16.10;91.60
31263;DHT22;17892;52.080;9.006;2022-08-21T02:20:47;16.10;91.70
31263;DHT22;17892;52.080;9.006;2022-08-21T02:23:14;16.20;91.80
31263;DHT22;17892;52.080;9.006;2022-08-21T02:25:40;16.20;91.70
31263;DHT22;17892;52.080;9.006;2022-08-21T02:28:11;16.30;91.70
31263;DHT22;17892;52.080;9.006;2022-08-21T02:30:45;16.30;91.80
31263;DHT22;17892;52.080;9.006;2022-08-21T02:33:13;16.40;91.80
31263;DHT22;17892;52.080;9.006;2022-08-21T02:35:40;16.40;91.50
31263;DHT22;17892;52.080;9.006;2022-08-21T02:38:12;16.40;91.50
31263;DHT22;17892;52.080;9.006;2022-08-21T02:40:42;16.50;91.40
31263;DHT22;17892;52.080;9.006;2022-08-21T02:43:09;16.50;91.30
31263;DHT22;17892;52.080;9.006;2022-08-21T02:45:36;16.50;91.20
31263;DHT22;17892;52.080;9.006;2022-08-21T02:48:08;16.50;91.10
31263;DHT22;17892;52.080;9.006;2022-08-21T02:50:41;16.60;91.30
31263;DHT22;17892;52.080;9.006;2022-08-21T02:53:10;16.60;91.20
31263;DHT22;17892;52.080;9.006;2022-08-21T02:55:38;16.60;91.00
31263;DHT22;17892;52.080;9.006;2022-08-21T02:58:06;16.60;90.90
31263;DHT22;17892;52.080;9.006;2022-08-21T03:00:33;16.60;90.90
31263;DHT22;17892;52.080;9.006;2022-08-21T03:03:00;16.60;90.90
31263;DHT22;17892;52.080;9.006;2022-08-21T03:05:27;16.60;90.90
31263;DHT22;17892;52.080;9.006;2022-08-21T03:07:54;16.50;90.80
31263;DHT22;17892;52.080;9.006;2022-08-21T03:10:20;16.50;90.80
31263;DHT22;17892;52.080;9.006;2022-08-21T03:12:47;16.50;90.70
31263;DHT22;17892;52.080;9.006;2022-08-21T03:15:16;16.40;90.70
31263;DHT22;17892;52.080;9.006;2022-08-21T03:17:44;16.40;90.60
31263;DHT22;17892;52.080;9.006;2022-08-21T03:20:12;16.30;90.60
31263;DHT22;17892;52.080;9.006;2022-08-21T03:22:39;16.30;90.60
31263;DHT22;17892;52.080;9.006;2022-08-21T03:25:05;16.20;90.50
31263;DHT22;17892;52.080;9.006;2022-08-21T03:27:31;16.20;90.60
31263;DHT22;17892;52.080;9.006;2022-08-21T03:29:59;16.20;90.70
31263;DHT22;17892;52.080;9.006;2022-08-21T03:32:25;16.10;90.70
31263;DHT22;17892;52.080;9.006;2022-08-21T03:34:51;16.10;90.90
31263;DHT22;17892;52.080;9.006;2022-08-21T03:37:17;16.10;90.90
31263;DHT22;17892;52.080;9.006;2022-08-21T03:39:43;16.10;91.00
31263;DHT22;17892;52.080;9.006;2022-08-21T03:42:10;16.10;91.30
31263;DHT22;17892;52.080;9.006;2022-08-21T03:44:37;16.10;91.40
31263;DHT22;17892;52.080;9.006;2022-08-21T03:47:04;16.10;91.60
31263;DHT22;17892;52.080;9.006;2022-08-21T03:49:30;16.10;91.60
31263;DHT22;17892;52.080;9.006;2022-08-21T03:51:56;16.10;91.60
31263;DHT22;17892;52.080;9.006;2022-08-21T03:54:22;16.10;91.60
31263;DHT22;17892;52.080;9.006;2022-08-21T03:56:47;16.20;91.70
31263;DHT22;17892;52.080;9.006;2022-08-21T03:59:13;16.20;91.90
31263;DHT22;17892;52.080;9.006;2022-08-21T04:01:39;16.20;91.90
31263;DHT22;17892;52.080;9.006;2022-08-21T04:04:06;16.20;92.00
31263;DHT22;17892;52.080;9.006;2022-08-21T04:06:32;16.20;92.00
31263;DHT22;17892;52.080;9.006;2022-08-21T04:08:57;16.20;92.00
31263;DHT22;17892;52.080;9.006;2022-08-21T04:11:23;16.20;92.10
31263;DHT22;17892;52.080;9.006;2022-08-21T04:13:49;16.30;92.10
31263;DHT22;17892;52.080;9.006;2022-08-21T04:16:14;16.30;92.10
31263;DHT22;17892;52.080;9.006;2022-08-21T04:18:41;16.30;92.10
31263;DHT22;17892;52.080;9.006;2022-08-21T04:21:09;16.40;92.10
31263;DHT22;17892;52.080;9.006;2022-08-21T04:23:36;16.40;92.30
31263;DHT22;17892;52.080;9.006;2022-08-21T04:26:02;16.40;92.30
31263;DHT22;17892;52.080;9.006;2022-08-21T04:28:28;16.50;92.50
31263;DHT22;17892;52.080;9.006;2022-08-21T04:30:54;16.60;92.80
31263;DHT22;17892;52.080;9.006;2022-08-21T04:33:21;16.70;92.90
31263;DHT22;17892;52.080;9.006;2022-08-21T04:35:48;16.70;93.00
31263;DHT22;17892;52.080;9.006;2022-08-21T04:38:14;16.80;93.10
31263;DHT22;17892;52.080;9.006;2022-08-21T04:40:40;17.00;93.50
31263;DHT22;17892;52.080;9.006;2022-08-21T04:43:09;17.10;93.40
31263;DHT22;17892;52.080;9.006;2022-08-21T04:45:38;17.20;93.30
31263;DHT22;17892;52.080;9.006;2022-08-21T04:48:08;17.30;93.20
31263;DHT22;17892;52.080;9.006;2022-08-21T04:53:34;17.50;93.20
31263;DHT22;17892;52.080;9.006;2022-08-21T04:58:56;17.70;93.00
31263;DHT22;17892;52.080;9.006;2022-08-21T05:01:25;17.80;92.90
31263;DHT22;17892;52.080;9.006;2022-08-21T05:03:56;17.80;92.80
31263;DHT22;17892;52.080;9.006;2022-08-21T05:06:24;17.90;92.90
31263;DHT22;17892;52.080;9.006;2022-08-21T05:08:53;18.00;92.80
31263;DHT22;17892;52.080;9.006;2022-08-21T05:11:20;18.10;92.90
31263;DHT22;17892;52.080;9.006;2022-08-21T05:13:47;18.10;92.80
31263;DHT22;17892;52.080;9.006;2022-08-21T05:16:14;18.20;92.70
31263;DHT22;17892;52.080;9.006;2022-08-21T05:18:41;18.20;92.60
31263;DHT22;17892;52.080;9.006;2022-08-21T05:21:07;18.30;92.50
31263;DHT22;17892;52.080;9.006;2022-08-21T05:23:33;18.40;92.50
31263;DHT22;17892;52.080;9.006;2022-08-21T05:25:59;18.40;92.30
31263;DHT22;17892;52.080;9.006;2022-08-21T05:28:25;18.50;92.20
31263;DHT22;17892;52.080;9.006;2022-08-21T05:30:51;18.50;92.10
31263;DHT22;17892;52.080;9.006;2022-08-21T05:33:17;18.50;92.00
31263;DHT22;17892;52.080;9.006;2022-08-21T05:35:43;18.60;91.90
31263;DHT22;17892;52.080;9.006;2022-08-21T05:38:09;18.60;91.80
31263;DHT22;17892;52.080;9.006;2022-08-21T05:40:35;18.60;91.80
31263;DHT22;17892;52.080;9.006;2022-08-21T05:43:01;18.60;91.80
31263;DHT22;17892;52.080;9.006;2022-08-21T05:45:29;18.60;91.80
31263;DHT22;17892;52.080;9.006;2022-08-21T05:47:56;18.60;91.80
31263;DHT22;17892;52.080;9.006;2022-08-21T05:50:21;18.60;91.80
31263;DHT22;17892;52.080;9.006;2022-08-21T05:52:47;18.60;91.80
31263;DHT22;17892;52.080;9.006;2022-08-21T05:55:13;18.70;92.00
31263;DHT22;17892;52.080;9.006;2022-08-21T05:57:39;18.80;92.40
31263;DHT22;17892;52.080;9.006;2022-08-21T06:00:07;18.90;92.70
31263;DHT22;17892;52.080;9.006;2022-08-21T06:02:38;19.20;92.90
31263;DHT22;17892;52.080;9.006;2022-08-21T06:05:05;19.50;93.00
31263;DHT22;17892;52.080;9.006;2022-08-21T06:07:31;19.80;93.00
31263;DHT22;17892;52.080;9.006;2022-08-21T06:09:57;20.10;92.80
31263;DHT22;17892;52.080;9.006;2022-08-21T06:12:23;20.40;92.50
31263;DHT22;17892;52.080;9.006;2022-08-21T06:14:49;20.80;92.30
31263;DHT22;17892;52.080;9.006;2022-08-21T06:17:17;21.10;92.00
31263;DHT22;17892;52.080;9.006;2022-08-21T06:19:43;21.40;91.70
31263;DHT22;17892;52.080;9.006;2022-08-21T06:22:09;21.70;91.30
31263;DHT22;17892;52.080;9.006;2022-08-21T06:24:34;21.90;90.90
31263;DHT22;17892;52.080;9.006;2022-08-21T06:27:08;22.20;90.40
31263;DHT22;17892;52.080;9.006;2022-08-21T06:29:34;22.40;88.50
31263;DHT22;17892;52.080;9.006;2022-08-21T06:32:00;22.60;89.40
31263;DHT22;17892;52.080;9.006;2022-08-21T06:34:26;22.80;88.50
31263;DHT22;17892;52.080;9.006;2022-08-21T06:36:52;23.00;87.60
31263;DHT22;17892;52.080;9.006;2022-08-21T06:39:18;23.10;86.30
31263;DHT22;17892;52.080;9.006;2022-08-21T06:41:44;23.10;85.30
31263;DHT22;17892;52.080;9.006;2022-08-21T06:44:10;23.10;84.20
31263;DHT22;17892;52.080;9.006;2022-08-21T06:46:36;23.00;83.80
31263;DHT22;17892;52.080;9.006;2022-08-21T06:49:01;22.90;83.50
31263;DHT22;17892;52.080;9.006;2022-08-21T06:51:27;22.80;83.20
31263;DHT22;17892;52.080;9.006;2022-08-21T06:53:53;22.70;83.50
31263;DHT22;17892;52.080;9.006;2022-08-21T06:56:19;22.50;83.60
31263;DHT22;17892;52.080;9.006;2022-08-21T06:58:46;22.40;83.60
31263;DHT22;17892;52.080;9.006;2022-08-21T07:01:11;22.30;83.80
31263;DHT22;17892;52.080;9.006;2022-08-21T07:03:40;22.30;83.90
31263;DHT22;17892;52.080;9.006;2022-08-21T07:06:09;22.20;83.50
31263;DHT22;17892;52.080;9.006;2022-08-21T07:08:37;22.10;83.30
31263;DHT22;17892;52.080;9.006;2022-08-21T07:11:07;22.10;83.30
31263;DHT22;17892;52.080;9.006;2022-08-21T07:13:35;22.00;82.80
31263;DHT22;17892;52.080;9.006;2022-08-21T07:16:01;22.10;83.20
31263;DHT22;17892;52.080;9.006;2022-08-21T07:18:26;22.10;83.20
31263;DHT22;17892;52.080;9.006;2022-08-21T07:20:53;22.10;83.20
31263;DHT22;17892;52.080;9.006;2022-08-21T07:23:33;22.10;82.70
31263;DHT22;17892;52.080;9.006;2022-08-21T07:26:00;22.20;82.20
31263;DHT22;17892;52.080;9.006;2022-08-21T07:28:27;22.30;82.40
31263;DHT22;17892;52.080;9.006;2022-08-21T07:30:55;22.30;82.40
31263;DHT22;17892;52.080;9.006;2022-08-21T07:33:22;22.40;81.70
31263;DHT22;17892;52.080;9.006;2022-08-21T07:35:49;22.50;81.60
31263;DHT22;17892;52.080;9.006;2022-08-21T07:38:15;22.50;80.90
31263;DHT22;17892;52.080;9.006;2022-08-21T07:40:41;22.60;80.40
31263;DHT22;17892;52.080;9.006;2022-08-21T07:43:07;22.60;79.10
31263;DHT22;17892;52.080;9.006;2022-08-21T07:45:33;22.70;77.50
31263;DHT22;17892;52.080;9.006;2022-08-21T07:47:59;22.80;78.20
31263;DHT22;17892;52.080;9.006;2022-08-21T07:50:25;22.80;78.00
31263;DHT22;17892;52.080;9.006;2022-08-21T07:52:51;22.80;77.60
31263;DHT22;17892;52.080;9.006;2022-08-21T07:55:19;22.90;77.50
31263;DHT22;17892;52.080;9.006;2022-08-21T07:57:46;22.90;76.70
31263;DHT22;17892;52.080;9.006;2022-08-21T08:00:18;23.00;76.00
31263;DHT22;17892;52.080;9.006;2022-08-21T08:02:47;23.00;76.40
31263;DHT22;17892;52.080;9.006;2022-08-21T08:05:19;23.10;74.70
31263;DHT22;17892;52.080;9.006;2022-08-21T08:07:47;23.20;76.00
31263;DHT22;17892;52.080;9.006;2022-08-21T08:10:13;23.30;76.20
31263;DHT22;17892;52.080;9.006;2022-08-21T08:12:40;23.30;76.20
31263;DHT22;17892;52.080;9.006;2022-08-21T08:15:11;23.60;76.70
31263;DHT22;17892;52.080;9.006;2022-08-21T08:17:39;23.80;76.90
31263;DHT22;17892;52.080;9.006;2022-08-21T08:20:07;24.20;77.80
31263;DHT22;17892;52.080;9.006;2022-08-21T08:22:35;24.60;79.20
31263;DHT22;17892;52.080;9.006;2022-08-21T08:25:01;25.00;75.60
31263;DHT22;17892;52.080;9.006;2022-08-21T08:27:27;25.40;75.70
31263;DHT22;17892;52.080;9.006;2022-08-21T08:29:53;25.80;74.30
31263;DHT22;17892;52.080;9.006;2022-08-21T08:32:19;26.10;71.40
31263;DHT22;17892;52.080;9.006;2022-08-21T08:34:45;26.40;70.90
31263;DHT22;17892;52.080;9.006;2022-08-21T08:37:12;26.70;70.80
31263;DHT22;17892;52.080;9.006;2022-08-21T08:39:38;27.00;69.80
31263;DHT22;17892;52.080;9.006;2022-08-21T08:42:14;27.30;68.80
31263;DHT22;17892;52.080;9.006;2022-08-21T08:44:57;27.50;67.90
31263;DHT22;17892;52.080;9.006;2022-08-21T08:47:26;27.80;64.10
31263;DHT22;17892;52.080;9.006;2022-08-21T08:50:33;28.00;64.90
31263;DHT22;17892;52.080;9.006;2022-08-21T08:53:15;28.20;59.70
31263;DHT22;17892;52.080;9.006;2022-08-21T08:55:44;28.40;60.80
31263;DHT22;17892;52.080;9.006;2022-08-21T08:58:21;28.60;59.90
31263;DHT22;17892;52.080;9.006;2022-08-21T09:00:51;28.70;60.00
31263;DHT22;17892;52.080;9.006;2022-08-21T09:03:18;28.90;59.90
31263;DHT22;17892;52.080;9.006;2022-08-21T09:05:53;29.00;60.20
31263;DHT22;17892;52.080;9.006;2022-08-21T09:11:31;29.20;57.50
31263;DHT22;17892;52.080;9.006;2022-08-21T09:14:39;29.30;56.90
31263;DHT22;17892;52.080;9.006;2022-08-21T09:17:32;29.40;53.90
31263;DHT22;17892;52.080;9.006;2022-08-21T09:25:42;29.40;55.50
31263;DHT22;17892;52.080;9.006;2022-08-21T09:28:20;29.50;56.50
31263;DHT22;17892;52.080;9.006;2022-08-21T09:30:46;29.70;58.00
31263;DHT22;17892;52.080;9.006;2022-08-21T09:33:12;30.00;56.80
31263;DHT22;17892;52.080;9.006;2022-08-21T09:35:52;30.30;55.20
31263;DHT22;17892;52.080;9.006;2022-08-21T09:38:34;30.50;53.20
31263;DHT22;17892;52.080;9.006;2022-08-21T09:41:07;30.70;51.40
31263;DHT22;17892;52.080;9.006;2022-08-21T09:43:35;30.70;51.00
31263;DHT22;17892;52.080;9.006;2022-08-21T09:46:09;30.60;51.10
31263;DHT22;17892;52.080;9.006;2022-08-21T09:48:42;30.60;50.90
31263;DHT22;17892;52.080;9.006;2022-08-21T09:51:13;30.60;51.30
31263;DHT22;17892;52.080;9.006;2022-08-21T09:53:45;30.70;51.40
31263;DHT22;17892;52.080;9.006;2022-08-21T09:56:26;30.90;54.50
31263;DHT22;17892;52.080;9.006;2022-08-21T09:59:32;31.20;52.00
31263;DHT22;17892;52.080;9.006;2022-08-21T10:02:01;31.40;50.40
31263;DHT22;17892;52.080;9.006;2022-08-21T10:04:32;31.40;49.60
31263;DHT22;17892;52.080;9.006;2022-08-21T10:07:26;31.40;50.10
31263;DHT22;17892;52.080;9.006;2022-08-21T10:10:05;31.50;48.30
31263;DHT22;17892;52.080;9.006;2022-08-21T10:12:45;31.50;48.10
31263;DHT22;17892;52.080;9.006;2022-08-21T10:18:25;31.50;47.30
31263;DHT22;17892;52.080;9.006;2022-08-21T10:21:16;31.40;44.70
31263;DHT22;17892;52.080;9.006;2022-08-21T10:23:52;31.20;46.30
31263;DHT22;17892;52.080;9.006;2022-08-21T10:26:34;31.20;47.20
31263;DHT22;17892;52.080;9.006;2022-08-21T10:34:33;31.20;45.70
31263;DHT22;17892;52.080;9.006;2022-08-21T10:39:57;31.40;46.10
31263;DHT22;17892;52.080;9.006;2022-08-21T10:43:21;31.40;46.40
31263;DHT22;17892;52.080;9.006;2022-08-21T10:48:49;31.20;43.70
31263;DHT22;17892;52.080;9.006;2022-08-21T10:54:28;30.40;43.90
31263;DHT22;17892;52.080;9.006;2022-08-21T10:57:11;30.20;45.80
31263;DHT22;17892;52.080;9.006;2022-08-21T11:00:10;30.20;46.50
31263;DHT22;17892;52.080;9.006;2022-08-21T11:02:47;30.30;45.50
31263;DHT22;17892;52.080;9.006;2022-08-21T11:10:59;30.00;45.30
31263;DHT22;17892;52.080;9.006;2022-08-21T11:13:39;29.90;45.50
31263;DHT22;17892;52.080;9.006;2022-08-21T11:18:53;30.00;46.70
31263;DHT22;17892;52.080;9.006;2022-08-21T11:21:45;30.20;46.60
31263;DHT22;17892;52.080;9.006;2022-08-21T11:24:33;30.30;46.50
31263;DHT22;17892;52.080;9.006;2022-08-21T11:30:15;31.00;46.70
31263;DHT22;17892;52.080;9.006;2022-08-21T11:41:15;31.70;45.70
31263;DHT22;17892;52.080;9.006;2022-08-21T11:43:48;31.80;44.30
31263;DHT22;17892;52.080;9.006;2022-08-21T11:49:49;31.60;43.30
31263;DHT22;17892;52.080;9.006;2022-08-21T11:52:34;31.30;43.50
31263;DHT22;17892;52.080;9.006;2022-08-21T11:55:21;31.10;43.60
31263;DHT22;17892;52.080;9.006;2022-08-21T11:57:58;30.90;44.90
31263;DHT22;17892;52.080;9.006;2022-08-21T12:00:58;31.00;44.90
31263;DHT22;17892;52.080;9.006;2022-08-21T12:03:32;31.20;45.70
31263;DHT22;17892;52.080;9.006;2022-08-21T12:06:13;31.40;45.20
31263;DHT22;17892;52.080;9.006;2022-08-21T12:08:42;31.60;43.20
31263;DHT22;17892;52.080;9.006;2022-08-21T12:13:58;31.80;44.10
31263;DHT22;17892;52.080;9.006;2022-08-21T12:16:32;31.90;44.20
31263;DHT22;17892;52.080;9.006;2022-08-21T12:19:14;32.10;44.00
31263;DHT22;17892;52.080;9.006;2022-08-21T12:24:43;32.70;43.10
31263;DHT22;17892;52.080;9.006;2022-08-21T12:30:18;33.10;41.10
31263;DHT22;17892;52.080;9.006;2022-08-21T12:33:02;33.00;40.50
31263;DHT22;17892;52.080;9.006;2022-08-21T12:35:37;32.70;40.20
31263;DHT22;17892;52.080;9.006;2022-08-21T12:38:17;32.30;40.50
31263;DHT22;17892;52.080;9.006;2022-08-21T12:43:20;31.60;40.70
31263;DHT22;17892;52.080;9.006;2022-08-21T12:45:59;31.30;41.60
31263;DHT22;17892;52.080;9.006;2022-08-21T12:48:42;31.20;42.70
31263;DHT22;17892;52.080;9.006;2022-08-21T12:51:17;31.20;43.80
31263;DHT22;17892;52.080;9.006;2022-08-21T12:53:47;31.40;44.20
31263;DHT22;17892;52.080;9.006;2022-08-21T12:56:17;31.50;43.70
31263;DHT22;17892;52.080;9.006;2022-08-21T12:59:06;31.70;43.60
31263;DHT22;17892;52.080;9.006;2022-08-21T13:01:46;31.90;43.80
31263;DHT22;17892;52.080;9.006;2022-08-21T13:04:17;32.20;42.80
31263;DHT22;17892;52.080;9.006;2022-08-21T13:06:49;32.50;43.40
31263;DHT22;17892;52.080;9.006;2022-08-21T13:09:20;32.70;42.80
31263;DHT22;17892;52.080;9.006;2022-08-21T13:11:50;32.90;41.70
31263;DHT22;17892;52.080;9.006;2022-08-21T13:14:36;33.00;42.00
31263;DHT22;17892;52.080;9.006;2022-08-21T13:17:04;33.10;42.00
31263;DHT22;17892;52.080;9.006;2022-08-21T13:19:31;33.20;41.10
31263;DHT22;17892;52.080;9.006;2022-08-21T13:21:58;33.30;41.00
31263;DHT22;17892;52.080;9.006;2022-08-21T13:24:25;33.40;40.90
31263;DHT22;17892;52.080;9.006;2022-08-21T13:26:54;33.60;41.10
31263;DHT22;17892;52.080;9.006;2022-08-21T13:29:27;33.80;40.90
31263;DHT22;17892;52.080;9.006;2022-08-21T13:32:05;34.00;39.60
31263;DHT22;17892;52.080;9.006;2022-08-21T13:34:36;34.10;38.70
31263;DHT22;17892;52.080;9.006;2022-08-21T13:37:07;34.20;39.60
31263;DHT22;17892;52.080;9.006;2022-08-21T13:39:34;34.40;38.70
31263;DHT22;17892;52.080;9.006;2022-08-21T13:42:02;34.60;39.00
31263;DHT22;17892;52.080;9.006;2022-08-21T13:44:36;34.60;37.90
31263;DHT22;17892;52.080;9.006;2022-08-21T13:47:06;34.70;37.70
31263;DHT22;17892;52.080;9.006;2022-08-21T13:49:38;34.80;38.00
31263;DHT22;17892;52.080;9.006;2022-08-21T13:52:19;34.80;38.20
31263;DHT22;17892;52.080;9.006;2022-08-21T13:54:58;34.90;37.00
31263;DHT22;17892;52.080;9.006;2022-08-21T13:57:29;34.90;36.10
31263;DHT22;17892;52.080;9.006;2022-08-21T14:00:10;34.70;36.30
31263;DHT22;17892;52.080;9.006;2022-08-21T14:02:41;34.60;38.00
31263;DHT22;17892;52.080;9.006;2022-08-21T14:05:16;34.30;36.70
31263;DHT22;17892;52.080;9.006;2022-08-21T14:08:14;34.20;37.50
31263;DHT22;17892;52.080;9.006;2022-08-21T14:10:48;34.20;38.90
31263;DHT22;17892;52.080;9.006;2022-08-21T14:13:26;34.30;37.60
31263;DHT22;17892;52.080;9.006;2022-08-21T14:16:11;34.30;35.90
31263;DHT22;17892;52.080;9.006;2022-08-21T14:18:52;34.20;35.90
31263;DHT22;17892;52.080;9.006;2022-08-21T14:21:34;33.80;35.60
31263;DHT22;17892;52.080;9.006;2022-08-21T14:24:05;33.30;35.60
31263;DHT22;17892;52.080;9.006;2022-08-21T14:26:48;32.80;36.20
31263;DHT22;17892;52.080;9.006;2022-08-21T14:29:17;32.40;37.00
31263;DHT22;17892;52.080;9.006;2022-08-21T14:31:50;32.10;38.20
31263;DHT22;17892;52.080;9.006;2022-08-21T14:34:17;32.00;38.40
31263;DHT22;17892;52.080;9.006;2022-08-21T14:36:43;31.90;38.90
31263;DHT22;17892;52.080;9.006;2022-08-21T14:39:09;31.90;39.50
31263;DHT22;17892;52.080;9.006;2022-08-21T14:41:36;32.00;39.60
31263;DHT22;17892;52.080;9.006;2022-08-21T14:44:02;32.10;38.50
31263;DHT22;17892;52.080;9.006;2022-08-21T14:46:30;32.10;38.30
31263;DHT22;17892;52.080;9.006;2022-08-21T14:48:58;32.20;38.00
31263;DHT22;17892;52.080;9.006;2022-08-21T14:51:23;32.10;37.80
31263;DHT22;17892;52.080;9.006;2022-08-21T14:53:49;32.10;38.50
31263;DHT22;17892;52.080;9.006;2022-08-21T14:56:16;32.00;38.80
31263;DHT22;17892;52.080;9.006;2022-08-21T14:58:45;32.10;39.00
31263;DHT22;17892;52.080;9.006;2022-08-21T15:01:14;32.20;39.50
31263;DHT22;17892;52.080;9.006;2022-08-21T15:03:41;32.30;40.60
31263;DHT22;17892;52.080;9.006;2022-08-21T15:06:08;32.60;39.90
31263;DHT22;17892;52.080;9.006;2022-08-21T15:08:34;32.80;38.50
31263;DHT22;17892;52.080;9.006;2022-08-21T15:11:01;32.90;37.40
31263;DHT22;17892;52.080;9.006;2022-08-21T15:13:29;32.80;37.10
31263;DHT22;17892;52.080;9.006;2022-08-21T15:15:56;32.50;36.50
31263;DHT22;17892;52.080;9.006;2022-08-21T15:18:24;32.20;36.40
31263;DHT22;17892;52.080;9.006;2022-08-21T15:20:52;31.80;36.80
31263;DHT22;17892;52.080;9.006;2022-08-21T15:23:18;31.30;37.10
31263;DHT22;17892;52.080;9.006;2022-08-21T15:25:46;30.90;37.40
31263;DHT22;17892;52.080;9.006;2022-08-21T15:28:14;30.50;38.00
31263;DHT22;17892;52.080;9.006;2022-08-21T15:30:42;30.20;38.80
31263;DHT22;17892;52.080;9.006;2022-08-21T15:33:09;30.00;39.70
31263;DHT22;17892;52.080;9.006;2022-08-21T15:35:35;29.90;40.30
31263;DHT22;17892;52.080;9.006;2022-08-21T15:38:00;29.90;40.40
31263;DHT22;17892;52.080;9.006;2022-08-21T15:40:27;29.90;40.40
31263;DHT22;17892;52.080;9.006;2022-08-21T15:43:02;29.80;40.50
31263;DHT22;17892;52.080;9.006;2022-08-21T15:45:29;29.70;40.40
31263;DHT22;17892;52.080;9.006;2022-08-21T15:47:56;29.60;40.50
31263;DHT22;17892;52.080;9.006;2022-08-21T15:50:22;29.50;40.70
31263;DHT22;17892;52.080;9.006;2022-08-21T15:52:49;29.50;41.10
31263;DHT22;17892;52.080;9.006;2022-08-21T15:55:15;29.50;41.20
31263;DHT22;17892;52.080;9.006;2022-08-21T15:57:49;29.50;41.30
31263;DHT22;17892;52.080;9.006;2022-08-21T16:00:22;29.50;41.40
31263;DHT22;17892;52.080;9.006;2022-08-21T16:02:51;29.50;41.30
31263;DHT22;17892;52.080;9.006;2022-08-21T16:05:20;29.60;41.30
31263;DHT22;17892;52.080;9.006;2022-08-21T16:07:48;29.60;41.50
31263;DHT22;17892;52.080;9.006;2022-08-21T16:10:15;29.60;41.40
31263;DHT22;17892;52.080;9.006;2022-08-21T16:12:47;29.70;41.30
31263;DHT22;17892;52.080;9.006;2022-08-21T16:15:16;29.70;41.10
31263;DHT22;17892;52.080;9.006;2022-08-21T16:17:44;29.70;41.10
31263;DHT22;17892;52.080;9.006;2022-08-21T16:20:15;29.70;40.70
31263;DHT22;17892;52.080;9.006;2022-08-21T16:22:43;29.60;40.50
31263;DHT22;17892;52.080;9.006;2022-08-21T16:25:09;29.40;40.20
31263;DHT22;17892;52.080;9.006;2022-08-21T16:27:34;29.20;40.30
31263;DHT22;17892;52.080;9.006;2022-08-21T16:30:02;29.10;40.30
31263;DHT22;17892;52.080;9.006;2022-08-21T16:32:29;28.90;40.50
31263;DHT22;17892;52.080;9.006;2022-08-21T16:34:55;28.70;41.00
31263;DHT22;17892;52.080;9.006;2022-08-21T16:37:21;28.60;41.50
31263;DHT22;17892;52.080;9.006;2022-08-21T16:39:47;28.50;41.60
31263;DHT22;17892;52.080;9.006;2022-08-21T16:42:23;28.40;41.70
31263;DHT22;17892;52.080;9.006;2022-08-21T16:44:50;28.30;41.90
31263;DHT22;17892;52.080;9.006;2022-08-21T16:47:17;28.20;41.90
31263;DHT22;17892;52.080;9.006;2022-08-21T16:49:42;28.20;42.60
31263;DHT22;17892;52.080;9.006;2022-08-21T16:52:08;28.00;41.90
31263;DHT22;17892;52.080;9.006;2022-08-21T16:54:34;27.90;41.90
31263;DHT22;17892;52.080;9.006;2022-08-21T16:57:00;27.70;42.00